sensor_id;sensor_type;location;lat;lon;timestamp;temperature;humidity
2130;DHT22;1071;52.544;13.374;2022-12-10T00:02:19;2.60;99.90
2130;DHT22;1071;52.544;13.374;2022-12-10T00:04:46;2.60;99.90
2130;DHT22;1071;52.544;13.374;2022-12-10T00:07:13;2.50;99.90
2130;DHT22;1071;52.544;13.374;2022-12-10T00:09:42;2.60;99.90
2130;DHT22;1071;52.544;13.374;2022-12-10T00:12:09;2.60;99.90
2130;DHT22;1071;52.544;13.374;2022-12-10T00:14:36;2.60;99.90
2130;DHT22;1071;52.544;13.374;2022-12-10T00:17:03;2.60;99.90
2130;DHT22;1071;52.544;13.374;2022-12-10T00:19:30;2.60;99.90
2130;DHT22;1071;52.544;13.374;2022-12-10T00:21:58;2.60;99.90
2130;DHT22;1071;52.544;13.374;2022-12-10T00:24:25;2.60;99.90
2130;DHT22;1071;52.544;13.374;2022-12-10T00:26:53;2.60;99.90
2130;DHT22;1071;52.544;13.374;2022-12-10T00:29:20;2.60;99.90
2130;DHT22;1071;52.544;13.374;2022-12-10T00:31:49;2.60;99.90
2130;DHT22;1071;52.544;13.374;2022-12-10T00:34:16;2.50;99.90
2130;DHT22;1071;52.544;13.374;2022-12-10T00:36:44;2.50;99.90
2130;DHT22;1071;52.544;13.374;2022-12-10T00:39:13;2.50;99.90
2130;DHT22;1071;52.544;13.374;2022-12-10T00:41:41;2.50;99.90
2130;DHT22;1071;52.544;13.374;2022-12-10T00:44:09;2.50;99.90
2130;DHT22;1071;52.544;13.374;2022-12-10T00:46:36;2.50;99.90
2130;DHT22;1071;52.544;13.374;2022-12-10T00:49:04;2.40;99.90
2130;DHT22;1071;52.544;13.374;2022-12-10T00:51:31;2.50;99.90
2130;DHT22;1071;52.544;13.374;2022-12-10T00:53:58;2.40;99.90
2130;DHT22;1071;52.544;13.374;2022-12-10T00:56:31;2.40;99.90
2130;DHT22;1071;52.544;13.374;2022-12-10T00:58:59;2.40;99.90
2130;DHT22;1071;52.544;13.374;2022-12-10T01:01:30;2.40;99.90
2130;DHT22;1071;52.544;13.374;2022-12-10T01:04:00;2.40;99.90
2130;DHT22;1071;52.544;13.374;2022-12-10T01:06:29;2.40;99.90
2130;DHT22;1071;52.544;13.374;2022-12-10T01:08:58;2.40;99.90
2130;DHT22;1071;52.544;13.374;2022-12-10T01:11:29;2.40;99.90
2130;DHT22;1071;52.544;13.374;2022-12-10T01:13:56;2.40;99.90
2130;DHT22;1071;52.544;13.374;2022-12-10T01:16:23;2.40;99.90
2130;DHT22;1071;52.544;13.374;2022-12-10T01:18:54;2.40;99.90
2130;DHT22;1071;52.544;13.374;2022-12-10T01:21:22;2.40;99.90
2130;DHT22;1071;52.544;13.374;2022-12-10T01:23:50;2.50;99.90
2130;DHT22;1071;52.544;13.374;2022-12-10T01:26:20;2.40;99.90
2130;DHT22;1071;52.544;13.374;2022-12-10T01:28:48;2.40;99.90
2130;DHT22;1071;52.544;13.374;2022-12-10T01:31:17;2.30;99.90
2130;DHT22;1071;52.544;13.374;2022-12-10T01:33:46;2.40;99.90
2130;DHT22;1071;52.544;13.374;2022-12-10T01:36:15;2.40;99.90
2130;DHT22;1071;52.544;13.374;2022-12-10T01:38:43;2.40;99.90
2130;DHT22;1071;52.544;13.374;2022-12-10T01:41:14;2.30;99.90
2130;DHT22;1071;52.544;13.374;2022-12-10T01:43:51;2.40;99.90
2130;DHT22;1071;52.544;13.374;2022-12-10T01:46:18;2.30;99.90
2130;DHT22;1071;52.544;13.374;2022-12-10T01:48:46;2.30;99.90
2130;DHT22;1071;52.544;13.374;2022-12-10T01:51:15;2.20;99.90
2130;DHT22;1071;52.544;13.374;2022-12-10T01:53:43;2.20;99.90
2130;DHT22;1071;52.544;13.374;2022-12-10T01:56:11;2.20;99.90
2130;DHT22;1071;52.544;13.374;2022-12-10T01:58:38;2.20;99.90
2130;DHT22;1071;52.544;13.374;2022-12-10T02:01:09;2.20;99.90
2130;DHT22;1071;52.544;13.374;2022-12-10T02:03:52;2.10;99.90
2130;DHT22;1071;52.544;13.374;2022-12-10T02:06:34;2.20;99.90
2130;DHT22;1071;52.544;13.374;2022-12-10T02:09:11;2.20;99.90
2130;DHT22;1071;52.544;13.374;2022-12-10T02:11:44;2.10;99.90
2130;DHT22;1071;52.544;13.374;2022-12-10T02:14:18;2.10;99.90
2130;DHT22;1071;52.544;13.374;2022-12-10T02:16:52;2.10;99.90
2130;DHT22;1071;52.544;13.374;2022-12-10T02:19:27;2.10;99.90
2130;DHT22;1071;52.544;13.374;2022-12-10T02:22:02;2.10;99.90
2130;DHT22;1071;52.544;13.374;2022-12-10T02:24:34;2.00;99.90
2130;DHT22;1071;52.544;13.374;2022-12-10T02:27:06;2.00;99.90
2130;DHT22;1071;52.544;13.374;2022-12-10T02:29:38;2.10;99.90
2130;DHT22;1071;52.544;13.374;2022-12-10T02:32:10;2.10;99.90
2130;DHT22;1071;52.544;13.374;2022-12-10T02:34:41;2.10;99.90
2130;DHT22;1071;52.544;13.374;2022-12-10T02:37:13;2.00;99.90
2130;DHT22;1071;52.544;13.374;2022-12-10T02:39:45;2.10;99.90
2130;DHT22;1071;52.544;13.374;2022-12-10T02:42:13;2.10;99.90
2130;DHT22;1071;52.544;13.374;2022-12-10T02:44:44;2.10;99.90
2130;DHT22;1071;52.544;13.374;2022-12-10T02:47:13;2.10;99.90
2130;DHT22;1071;52.544;13.374;2022-12-10T02:49:41;2.10;99.90
2130;DHT22;1071;52.544;13.374;2022-12-10T02:52:09;2.10;99.90
2130;DHT22;1071;52.544;13.374;2022-12-10T02:54:40;2.10;99.90
2130;DHT22;1071;52.544;13.374;2022-12-10T02:57:15;2.10;99.90
2130;DHT22;1071;52.544;13.374;2022-12-10T02:59:56;2.10;99.90
2130;DHT22;1071;52.544;13.374;2022-12-10T03:02:29;2.10;99.90
2130;DHT22;1071;52.544;13.374;2022-12-10T03:05:02;2.10;99.90
2130;DHT22;1071;52.544;13.374;2022-12-10T03:07:35;2.10;99.90
2130;DHT22;1071;52.544;13.374;2022-12-10T03:10:09;2.00;99.90
2130;DHT22;1071;52.544;13.374;2022-12-10T03:12:43;1.90;99.90
2130;DHT22;1071;52.544;13.374;2022-12-10T03:15:18;1.90;99.90
2130;DHT22;1071;52.544;13.374;2022-12-10T03:17:47;1.90;99.90
2130;DHT22;1071;52.544;13.374;2022-12-10T03:20:16;2.00;99.90
2130;DHT22;1071;52.544;13.374;2022-12-10T03:22:45;2.00;99.90
2130;DHT22;1071;52.544;13.374;2022-12-10T03:25:15;2.00;99.90
2130;DHT22;1071;52.544;13.374;2022-12-10T03:27:45;2.00;99.90
2130;DHT22;1071;52.544;13.374;2022-12-10T03:30:16;2.00;99.90
2130;DHT22;1071;52.544;13.374;2022-12-10T03:32:44;2.10;99.90
2130;DHT22;1071;52.544;13.374;2022-12-10T03:35:12;2.10;99.90
2130;DHT22;1071;52.544;13.374;2022-12-10T03:37:40;2.10;99.90
2130;DHT22;1071;52.544;13.374;2022-12-10T03:40:09;2.10;99.90
2130;DHT22;1071;52.544;13.374;2022-12-10T03:42:38;2.10;99.90
2130;DHT22;1071;52.544;13.374;2022-12-10T03:45:06;2.20;99.90
2130;DHT22;1071;52.544;13.374;2022-12-10T03:47:34;2.10;99.90
2130;DHT22;1071;52.544;13.374;2022-12-10T03:50:02;2.10;99.90
2130;DHT22;1071;52.544;13.374;2022-12-10T03:52:30;2.10;99.90
2130;DHT22;1071;52.544;13.374;2022-12-10T03:54:57;2.10;99.90
2130;DHT22;1071;52.544;13.374;2022-12-10T03:57:24;2.10;99.90
2130;DHT22;1071;52.544;13.374;2022-12-10T03:59:51;2.10;99.90
2130;DHT22;1071;52.544;13.374;2022-12-10T04:02:18;2.10;99.90
2130;DHT22;1071;52.544;13.374;2022-12-10T04:04:46;2.10;99.90
2130;DHT22;1071;52.544;13.374;2022-12-10T04:07:13;2.10;99.90
2130;DHT22;1071;52.544;13.374;2022-12-10T04:09:40;2.10;99.90
2130;DHT22;1071;52.544;13.374;2022-12-10T04:12:07;2.10;99.90
2130;DHT22;1071;52.544;13.374;2022-12-10T04:14:35;2.10;99.90
2130;DHT22;1071;52.544;13.374;2022-12-10T04:17:19;2.10;99.90
2130;DHT22;1071;52.544;13.374;2022-12-10T04:19:47;2.20;99.90
2130;DHT22;1071;52.544;13.374;2022-12-10T04:22:14;2.20;99.90
2130;DHT22;1071;52.544;13.374;2022-12-10T04:24:58;2.20;99.90
2130;DHT22;1071;52.544;13.374;2022-12-10T04:27:48;2.20;99.90
2130;DHT22;1071;52.544;13.374;2022-12-10T04:30:15;2.30;99.90
2130;DHT22;1071;52.544;13.374;2022-12-10T04:32:42;2.30;99.90
2130;DHT22;1071;52.544;13.374;2022-12-10T04:35:11;2.30;99.90
2130;DHT22;1071;52.544;13.374;2022-12-10T04:37:38;2.40;99.90
2130;DHT22;1071;52.544;13.374;2022-12-10T04:40:06;2.40;99.90
2130;DHT22;1071;52.544;13.374;2022-12-10T04:42:33;2.40;99.90
2130;DHT22;1071;52.544;13.374;2022-12-10T04:45:05;2.40;99.90
2130;DHT22;1071;52.544;13.374;2022-12-10T04:47:32;2.50;99.90
2130;DHT22;1071;52.544;13.374;2022-12-10T04:50:00;2.50;99.90
2130;DHT22;1071;52.544;13.374;2022-12-10T04:52:30;2.50;99.90
2130;DHT22;1071;52.544;13.374;2022-12-10T04:54:57;2.60;99.90
2130;DHT22;1071;52.544;13.374;2022-12-10T04:57:24;2.50;99.90
2130;DHT22;1071;52.544;13.374;2022-12-10T04:59:54;2.60;99.90
2130;DHT22;1071;52.544;13.374;2022-12-10T05:02:21;2.50;99.90
2130;DHT22;1071;52.544;13.374;2022-12-10T05:04:48;2.60;99.90
2130;DHT22;1071;52.544;13.374;2022-12-10T05:07:15;2.60;99.90
2130;DHT22;1071;52.544;13.374;2022-12-10T05:09:43;2.60;99.90
2130;DHT22;1071;52.544;13.374;2022-12-10T05:12:10;2.60;99.90
2130;DHT22;1071;52.544;13.374;2022-12-10T05:14:37;2.60;99.90
2130;DHT22;1071;52.544;13.374;2022-12-10T05:17:04;2.60;99.90
2130;DHT22;1071;52.544;13.374;2022-12-10T05:19:31;2.60;99.90
2130;DHT22;1071;52.544;13.374;2022-12-10T05:21:58;2.70;99.90
2130;DHT22;1071;52.544;13.374;2022-12-10T05:24:44;2.70;99.90
2130;DHT22;1071;52.544;13.374;2022-12-10T05:27:11;2.60;99.90
2130;DHT22;1071;52.544;13.374;2022-12-10T05:29:38;2.70;99.90
2130;DHT22;1071;52.544;13.374;2022-12-10T05:32:05;2.70;99.90
2130;DHT22;1071;52.544;13.374;2022-12-10T05:34:32;2.70;99.90
2130;DHT22;1071;52.544;13.374;2022-12-10T05:36:59;2.70;99.90
2130;DHT22;1071;52.544;13.374;2022-12-10T05:39:25;2.70;99.90
2130;DHT22;1071;52.544;13.374;2022-12-10T05:41:54;2.70;99.90
2130;DHT22;1071;52.544;13.374;2022-12-10T05:44:21;2.70;99.90
2130;DHT22;1071;52.544;13.374;2022-12-10T05:46:48;2.80;99.90
2130;DHT22;1071;52.544;13.374;2022-12-10T05:49:15;2.80;99.90
2130;DHT22;1071;52.544;13.374;2022-12-10T05:51:42;2.80;99.90
2130;DHT22;1071;52.544;13.374;2022-12-10T05:54:09;2.80;99.90
2130;DHT22;1071;52.544;13.374;2022-12-10T05:56:36;2.80;99.90
2130;DHT22;1071;52.544;13.374;2022-12-10T05:59:12;2.80;99.90
2130;DHT22;1071;52.544;13.374;2022-12-10T06:01:39;2.80;99.90
2130;DHT22;1071;52.544;13.374;2022-12-10T06:04:07;2.80;99.90
2130;DHT22;1071;52.544;13.374;2022-12-10T06:06:37;2.80;99.90
2130;DHT22;1071;52.544;13.374;2022-12-10T06:09:06;2.80;99.90
2130;DHT22;1071;52.544;13.374;2022-12-10T06:11:34;2.90;99.90
2130;DHT22;1071;52.544;13.374;2022-12-10T06:14:01;2.80;99.90
2130;DHT22;1071;52.544;13.374;2022-12-10T06:16:29;2.80;99.90
2130;DHT22;1071;52.544;13.374;2022-12-10T06:18:59;2.80;99.90
2130;DHT22;1071;52.544;13.374;2022-12-10T06:21:28;2.90;99.90
2130;DHT22;1071;52.544;13.374;2022-12-10T06:23:55;2.90;99.90
2130;DHT22;1071;52.544;13.374;2022-12-10T06:26:23;2.80;99.90
2130;DHT22;1071;52.544;13.374;2022-12-10T06:28:51;2.80;99.90
2130;DHT22;1071;52.544;13.374;2022-12-10T06:31:19;2.80;99.90
2130;DHT22;1071;52.544;13.374;2022-12-10T06:33:48;2.90;99.90
2130;DHT22;1071;52.544;13.374;2022-12-10T06:36:16;2.90;99.90
2130;DHT22;1071;52.544;13.374;2022-12-10T06:38:45;2.90;99.90
2130;DHT22;1071;52.544;13.374;2022-12-10T06:41:14;2.90;99.90
2130;DHT22;1071;52.544;13.374;2022-12-10T06:43:41;2.90;99.90
2130;DHT22;1071;52.544;13.374;2022-12-10T06:46:10;2.80;99.90
2130;DHT22;1071;52.544;13.374;2022-12-10T06:48:38;2.80;99.90
2130;DHT22;1071;52.544;13.374;2022-12-10T06:51:07;2.70;99.90
2130;DHT22;1071;52.544;13.374;2022-12-10T06:53:36;2.80;99.90
2130;DHT22;1071;52.544;13.374;2022-12-10T06:56:04;2.80;99.90
2130;DHT22;1071;52.544;13.374;2022-12-10T06:58:33;2.80;99.90
2130;DHT22;1071;52.544;13.374;2022-12-10T07:01:05;2.80;99.90
2130;DHT22;1071;52.544;13.374;2022-12-10T07:03:32;2.70;99.90
2130;DHT22;1071;52.544;13.374;2022-12-10T07:06:04;2.80;99.90
2130;DHT22;1071;52.544;13.374;2022-12-10T07:08:32;2.70;99.90
2130;DHT22;1071;52.544;13.374;2022-12-10T07:11:03;2.80;99.90
2130;DHT22;1071;52.544;13.374;2022-12-10T07:13:30;2.70;99.90
2130;DHT22;1071;52.544;13.374;2022-12-10T07:15:57;2.70;99.90
2130;DHT22;1071;52.544;13.374;2022-12-10T07:18:24;2.70;99.90
2130;DHT22;1071;52.544;13.374;2022-12-10T07:20:51;2.70;99.90
2130;DHT22;1071;52.544;13.374;2022-12-10T07:23:19;2.70;99.90
2130;DHT22;1071;52.544;13.374;2022-12-10T07:25:47;2.70;99.90
2130;DHT22;1071;52.544;13.374;2022-12-10T07:28:15;2.70;99.90
2130;DHT22;1071;52.544;13.374;2022-12-10T07:30:42;2.70;99.90
2130;DHT22;1071;52.544;13.374;2022-12-10T07:33:12;2.70;99.90
2130;DHT22;1071;52.544;13.374;2022-12-10T07:35:39;2.70;99.90
2130;DHT22;1071;52.544;13.374;2022-12-10T07:38:06;2.80;99.90
2130;DHT22;1071;52.544;13.374;2022-12-10T07:40:33;2.70;99.90
2130;DHT22;1071;52.544;13.374;2022-12-10T07:43:02;2.80;99.90
2130;DHT22;1071;52.544;13.374;2022-12-10T07:45:29;2.80;99.90
2130;DHT22;1071;52.544;13.374;2022-12-10T07:47:58;2.80;99.90
2130;DHT22;1071;52.544;13.374;2022-12-10T07:50:25;2.70;99.90
2130;DHT22;1071;52.544;13.374;2022-12-10T07:52:52;2.70;99.90
2130;DHT22;1071;52.544;13.374;2022-12-10T07:55:21;2.80;99.90
2130;DHT22;1071;52.544;13.374;2022-12-10T07:57:48;2.80;99.90
2130;DHT22;1071;52.544;13.374;2022-12-10T08:00:17;2.70;99.90
2130;DHT22;1071;52.544;13.374;2022-12-10T08:02:44;2.80;99.90
2130;DHT22;1071;52.544;13.374;2022-12-10T08:05:11;2.80;99.90
2130;DHT22;1071;52.544;13.374;2022-12-10T08:07:38;2.80;99.90
2130;DHT22;1071;52.544;13.374;2022-12-10T08:10:07;2.70;99.90
2130;DHT22;1071;52.544;13.374;2022-12-10T08:12:33;2.70;99.90
2130;DHT22;1071;52.544;13.374;2022-12-10T08:15:00;2.80;99.90
2130;DHT22;1071;52.544;13.374;2022-12-10T08:17:30;2.80;99.90
2130;DHT22;1071;52.544;13.374;2022-12-10T08:19:57;2.80;99.90
2130;DHT22;1071;52.544;13.374;2022-12-10T08:22:27;2.80;99.90
2130;DHT22;1071;52.544;13.374;2022-12-10T08:24:54;2.80;99.90
2130;DHT22;1071;52.544;13.374;2022-12-10T08:27:22;2.80;99.90
2130;DHT22;1071;52.544;13.374;2022-12-10T08:29:49;2.80;99.90
2130;DHT22;1071;52.544;13.374;2022-12-10T08:32:16;2.80;99.90
2130;DHT22;1071;52.544;13.374;2022-12-10T08:34:45;2.80;99.90
2130;DHT22;1071;52.544;13.374;2022-12-10T08:37:14;2.80;99.90
2130;DHT22;1071;52.544;13.374;2022-12-10T08:39:43;2.80;99.90
2130;DHT22;1071;52.544;13.374;2022-12-10T08:42:09;2.70;99.90
2130;DHT22;1071;52.544;13.374;2022-12-10T08:44:37;2.80;99.90
2130;DHT22;1071;52.544;13.374;2022-12-10T08:47:06;2.70;99.90
2130;DHT22;1071;52.544;13.374;2022-12-10T08:49:33;2.80;99.90
2130;DHT22;1071;52.544;13.374;2022-12-10T08:52:02;2.70;99.90
2130;DHT22;1071;52.544;13.374;2022-12-10T08:54:30;2.80;99.90
2130;DHT22;1071;52.544;13.374;2022-12-10T08:56:57;2.80;99.90
2130;DHT22;1071;52.544;13.374;2022-12-10T08:59:24;2.80;99.90
2130;DHT22;1071;52.544;13.374;2022-12-10T09:01:53;2.80;99.90
2130;DHT22;1071;52.544;13.374;2022-12-10T09:04:22;2.80;99.90
2130;DHT22;1071;52.544;13.374;2022-12-10T09:06:50;2.80;99.90
2130;DHT22;1071;52.544;13.374;2022-12-10T09:09:19;2.90;99.90
2130;DHT22;1071;52.544;13.374;2022-12-10T09:11:46;2.90;99.90
2130;DHT22;1071;52.544;13.374;2022-12-10T09:14:16;2.80;99.90
2130;DHT22;1071;52.544;13.374;2022-12-10T09:16:43;2.80;99.90
2130;DHT22;1071;52.544;13.374;2022-12-10T09:19:10;2.90;99.90
2130;DHT22;1071;52.544;13.374;2022-12-10T09:21:37;2.90;99.90
2130;DHT22;1071;52.544;13.374;2022-12-10T09:24:05;2.90;99.90
2130;DHT22;1071;52.544;13.374;2022-12-10T09:26:45;3.00;99.90
2130;DHT22;1071;52.544;13.374;2022-12-10T09:29:26;3.00;99.90
2130;DHT22;1071;52.544;13.374;2022-12-10T09:31:55;3.00;99.90
2130;DHT22;1071;52.544;13.374;2022-12-10T09:34:28;3.00;99.90
2130;DHT22;1071;52.544;13.374;2022-12-10T09:37:02;3.00;99.90
2130;DHT22;1071;52.544;13.374;2022-12-10T09:39:45;3.00;99.90
2130;DHT22;1071;52.544;13.374;2022-12-10T09:42:31;3.10;99.90
2130;DHT22;1071;52.544;13.374;2022-12-10T09:45:10;3.00;99.90
2130;DHT22;1071;52.544;13.374;2022-12-10T09:47:49;3.10;99.90
2130;DHT22;1071;52.544;13.374;2022-12-10T09:50:28;3.10;99.90
2130;DHT22;1071;52.544;13.374;2022-12-10T09:52:59;3.00;99.90
2130;DHT22;1071;52.544;13.374;2022-12-10T09:55:34;3.10;99.90
2130;DHT22;1071;52.544;13.374;2022-12-10T09:58:18;3.10;99.90
2130;DHT22;1071;52.544;13.374;2022-12-10T10:00:47;3.10;99.90
2130;DHT22;1071;52.544;13.374;2022-12-10T10:03:16;3.10;99.90
2130;DHT22;1071;52.544;13.374;2022-12-10T10:05:46;3.10;99.90
2130;DHT22;1071;52.544;13.374;2022-12-10T10:08:21;3.10;99.90
2130;DHT22;1071;52.544;13.374;2022-12-10T10:10:50;3.10;99.90
2130;DHT22;1071;52.544;13.374;2022-12-10T10:13:28;3.10;99.90
2130;DHT22;1071;52.544;13.374;2022-12-10T10:16:01;3.10;99.90
2130;DHT22;1071;52.544;13.374;2022-12-10T10:18:41;3.10;99.90
2130;DHT22;1071;52.544;13.374;2022-12-10T10:21:15;3.20;99.90
2130;DHT22;1071;52.544;13.374;2022-12-10T10:23:45;3.20;99.90
2130;DHT22;1071;52.544;13.374;2022-12-10T10:26:12;3.10;99.90
2130;DHT22;1071;52.544;13.374;2022-12-10T10:28:42;3.20;99.90
2130;DHT22;1071;52.544;13.374;2022-12-10T10:31:17;3.20;99.90
2130;DHT22;1071;52.544;13.374;2022-12-10T10:33:48;3.20;99.90
2130;DHT22;1071;52.544;13.374;2022-12-10T10:36:23;3.20;99.90
2130;DHT22;1071;52.544;13.374;2022-12-10T10:38:52;3.20;99.90
2130;DHT22;1071;52.544;13.374;2022-12-10T10:41:23;3.20;99.90
2130;DHT22;1071;52.544;13.374;2022-12-10T10:43:59;3.10;99.90
2130;DHT22;1071;52.544;13.374;2022-12-10T10:46:29;3.10;99.90
2130;DHT22;1071;52.544;13.374;2022-12-10T10:49:13;3.10;99.90
2130;DHT22;1071;52.544;13.374;2022-12-10T10:51:42;3.20;99.90
2130;DHT22;1071;52.544;13.374;2022-12-10T10:54:10;3.10;99.90
2130;DHT22;1071;52.544;13.374;2022-12-10T10:56:40;3.20;99.90
2130;DHT22;1071;52.544;13.374;2022-12-10T10:59:29;3.10;99.90
2130;DHT22;1071;52.544;13.374;2022-12-10T11:02:01;3.20;99.90
2130;DHT22;1071;52.544;13.374;2022-12-10T11:04:37;3.10;99.90
2130;DHT22;1071;52.544;13.374;2022-12-10T11:07:13;3.20;99.90
2130;DHT22;1071;52.544;13.374;2022-12-10T11:09:44;3.20;99.90
2130;DHT22;1071;52.544;13.374;2022-12-10T11:12:29;3.20;99.90
2130;DHT22;1071;52.544;13.374;2022-12-10T11:15:01;3.20;99.90
2130;DHT22;1071;52.544;13.374;2022-12-10T11:17:29;3.20;99.90
2130;DHT22;1071;52.544;13.374;2022-12-10T11:19:59;3.30;99.90
2130;DHT22;1071;52.544;13.374;2022-12-10T11:22:29;3.20;99.90
2130;DHT22;1071;52.544;13.374;2022-12-10T11:24:57;3.20;99.90
2130;DHT22;1071;52.544;13.374;2022-12-10T11:27:53;3.30;99.90
2130;DHT22;1071;52.544;13.374;2022-12-10T11:30:31;3.30;99.90
2130;DHT22;1071;52.544;13.374;2022-12-10T11:33:18;3.40;99.90
2130;DHT22;1071;52.544;13.374;2022-12-10T11:35:59;3.40;99.90
2130;DHT22;1071;52.544;13.374;2022-12-10T11:38:41;3.30;99.90
2130;DHT22;1071;52.544;13.374;2022-12-10T11:41:18;3.30;99.90
2130;DHT22;1071;52.544;13.374;2022-12-10T11:44:12;3.20;99.90
2130;DHT22;1071;52.544;13.374;2022-12-10T11:49:42;3.30;99.90
2130;DHT22;1071;52.544;13.374;2022-12-10T11:52:19;3.30;99.90
2130;DHT22;1071;52.544;13.374;2022-12-10T11:55:02;3.30;99.90
2130;DHT22;1071;52.544;13.374;2022-12-10T11:57:42;3.30;99.90
2130;DHT22;1071;52.544;13.374;2022-12-10T12:00:21;3.30;99.90
2130;DHT22;1071;52.544;13.374;2022-12-10T12:06:00;3.30;99.90
2130;DHT22;1071;52.544;13.374;2022-12-10T12:08:41;3.30;99.90
2130;DHT22;1071;52.544;13.374;2022-12-10T12:11:21;3.30;99.90
2130;DHT22;1071;52.544;13.374;2022-12-10T12:13:57;3.30;99.90
2130;DHT22;1071;52.544;13.374;2022-12-10T12:16:31;3.30;99.90
2130;DHT22;1071;52.544;13.374;2022-12-10T12:19:08;3.30;99.90
2130;DHT22;1071;52.544;13.374;2022-12-10T12:21:36;3.30;99.90
2130;DHT22;1071;52.544;13.374;2022-12-10T12:24:14;3.30;99.90
2130;DHT22;1071;52.544;13.374;2022-12-10T12:26:48;3.30;99.90
2130;DHT22;1071;52.544;13.374;2022-12-10T12:29:23;3.30;99.90
2130;DHT22;1071;52.544;13.374;2022-12-10T12:31:57;3.30;99.90
2130;DHT22;1071;52.544;13.374;2022-12-10T12:34:37;3.30;99.90
2130;DHT22;1071;52.544;13.374;2022-12-10T12:37:09;3.30;99.90
2130;DHT22;1071;52.544;13.374;2022-12-10T12:39:45;3.30;99.90
2130;DHT22;1071;52.544;13.374;2022-12-10T12:42:19;3.30;99.90
2130;DHT22;1071;52.544;13.374;2022-12-10T12:44:57;3.30;99.90
2130;DHT22;1071;52.544;13.374;2022-12-10T12:47:37;3.30;99.90
2130;DHT22;1071;52.544;13.374;2022-12-10T12:50:28;3.20;99.90
2130;DHT22;1071;52.544;13.374;2022-12-10T12:52:59;3.30;99.90
2130;DHT22;1071;52.544;13.374;2022-12-10T12:55:31;3.20;99.90
2130;DHT22;1071;52.544;13.374;2022-12-10T12:58:11;3.20;99.90
2130;DHT22;1071;52.544;13.374;2022-12-10T13:00:46;3.20;99.90
2130;DHT22;1071;52.544;13.374;2022-12-10T13:03:29;3.30;99.90
2130;DHT22;1071;52.544;13.374;2022-12-10T13:06:14;3.20;99.90
2130;DHT22;1071;52.544;13.374;2022-12-10T13:09:18;3.20;99.90
2130;DHT22;1071;52.544;13.374;2022-12-10T13:12:24;3.30;99.90
2130;DHT22;1071;52.544;13.374;2022-12-10T13:15:11;3.20;99.90
2130;DHT22;1071;52.544;13.374;2022-12-10T13:18:01;3.20;99.90
2130;DHT22;1071;52.544;13.374;2022-12-10T13:20:34;3.20;99.90
2130;DHT22;1071;52.544;13.374;2022-12-10T13:23:04;3.20;99.90
2130;DHT22;1071;52.544;13.374;2022-12-10T13:25:40;3.20;99.90
2130;DHT22;1071;52.544;13.374;2022-12-10T13:28:26;3.30;99.90
2130;DHT22;1071;52.544;13.374;2022-12-10T13:31:08;3.20;99.90
2130;DHT22;1071;52.544;13.374;2022-12-10T13:33:48;3.20;99.90
2130;DHT22;1071;52.544;13.374;2022-12-10T13:36:27;3.30;99.90
2130;DHT22;1071;52.544;13.374;2022-12-10T13:39:04;3.20;99.90
2130;DHT22;1071;52.544;13.374;2022-12-10T13:41:40;3.20;99.90
2130;DHT22;1071;52.544;13.374;2022-12-10T13:44:33;3.20;99.90
2130;DHT22;1071;52.544;13.374;2022-12-10T13:47:21;3.20;99.90
2130;DHT22;1071;52.544;13.374;2022-12-10T13:49:53;3.10;99.90
2130;DHT22;1071;52.544;13.374;2022-12-10T13:52:26;3.10;99.90
2130;DHT22;1071;52.544;13.374;2022-12-10T13:55:20;3.00;99.90
2130;DHT22;1071;52.544;13.374;2022-12-10T13:57:59;3.10;99.90
2130;DHT22;1071;52.544;13.374;2022-12-10T14:00:36;3.10;99.90
2130;DHT22;1071;52.544;13.374;2022-12-10T14:06:13;3.10;99.90
2130;DHT22;1071;52.544;13.374;2022-12-10T14:11:38;3.10;99.90
2130;DHT22;1071;52.544;13.374;2022-12-10T14:14:11;3.00;99.90
2130;DHT22;1071;52.544;13.374;2022-12-10T14:16:40;3.00;99.90
2130;DHT22;1071;52.544;13.374;2022-12-10T14:19:11;3.00;99.90
2130;DHT22;1071;52.544;13.374;2022-12-10T14:21:41;3.00;99.90
2130;DHT22;1071;52.544;13.374;2022-12-10T14:24:28;3.00;99.90
2130;DHT22;1071;52.544;13.374;2022-12-10T14:27:00;3.00;99.90
2130;DHT22;1071;52.544;13.374;2022-12-10T14:29:28;3.10;99.90
2130;DHT22;1071;52.544;13.374;2022-12-10T14:31:55;3.10;99.90
2130;DHT22;1071;52.544;13.374;2022-12-10T14:34:25;3.10;99.90
2130;DHT22;1071;52.544;13.374;2022-12-10T14:36:55;3.10;99.90
2130;DHT22;1071;52.544;13.374;2022-12-10T14:39:26;3.10;99.90
2130;DHT22;1071;52.544;13.374;2022-12-10T14:41:58;3.10;99.90
2130;DHT22;1071;52.544;13.374;2022-12-10T14:44:26;3.10;99.90
2130;DHT22;1071;52.544;13.374;2022-12-10T14:47:04;3.10;99.90
2130;DHT22;1071;52.544;13.374;2022-12-10T14:49:31;3.20;99.90
2130;DHT22;1071;52.544;13.374;2022-12-10T14:52:00;3.10;99.90
2130;DHT22;1071;52.544;13.374;2022-12-10T14:54:28;3.10;99.90
2130;DHT22;1071;52.544;13.374;2022-12-10T14:57:00;3.10;99.90
2130;DHT22;1071;52.544;13.374;2022-12-10T14:59:31;3.10;99.90
2130;DHT22;1071;52.544;13.374;2022-12-10T15:02:10;3.10;99.90
2130;DHT22;1071;52.544;13.374;2022-12-10T15:04:42;3.10;99.90
2130;DHT22;1071;52.544;13.374;2022-12-10T15:07:13;3.10;99.90
2130;DHT22;1071;52.544;13.374;2022-12-10T15:09:42;3.20;99.90
2130;DHT22;1071;52.544;13.374;2022-12-10T15:12:29;3.20;99.90
2130;DHT22;1071;52.544;13.374;2022-12-10T15:15:04;3.20;99.90
2130;DHT22;1071;52.544;13.374;2022-12-10T15:17:37;3.10;99.90
2130;DHT22;1071;52.544;13.374;2022-12-10T15:20:24;3.20;99.90
2130;DHT22;1071;52.544;13.374;2022-12-10T15:22:53;3.20;99.90
2130;DHT22;1071;52.544;13.374;2022-12-10T15:25:27;3.20;99.90
2130;DHT22;1071;52.544;13.374;2022-12-10T15:30:46;3.20;99.90
2130;DHT22;1071;52.544;13.374;2022-12-10T15:33:30;3.20;99.90
2130;DHT22;1071;52.544;13.374;2022-12-10T15:35:59;3.20;99.90
2130;DHT22;1071;52.544;13.374;2022-12-10T15:38:27;3.20;99.90
2130;DHT22;1071;52.544;13.374;2022-12-10T15:40:59;3.20;99.90
2130;DHT22;1071;52.544;13.374;2022-12-10T15:43:29;3.20;99.90
2130;DHT22;1071;52.544;13.374;2022-12-10T15:45:58;3.20;99.90
2130;DHT22;1071;52.544;13.374;2022-12-10T15:48:28;3.20;99.90
2130;DHT22;1071;52.544;13.374;2022-12-10T15:50:55;3.30;99.90
2130;DHT22;1071;52.544;13.374;2022-12-10T15:53:26;3.20;99.90
2130;DHT22;1071;52.544;13.374;2022-12-10T15:55:54;3.20;99.90
2130;DHT22;1071;52.544;13.374;2022-12-10T15:58:21;3.20;99.90
2130;DHT22;1071;52.544;13.374;2022-12-10T16:00:50;3.20;99.90
2130;DHT22;1071;52.544;13.374;2022-12-10T16:03:17;3.20;99.90
2130;DHT22;1071;52.544;13.374;2022-12-10T16:05:46;3.20;99.90
2130;DHT22;1071;52.544;13.374;2022-12-10T16:08:19;3.20;99.90
2130;DHT22;1071;52.544;13.374;2022-12-10T16:10:47;3.20;99.90
2130;DHT22;1071;52.544;13.374;2022-12-10T16:13:18;3.20;99.90
2130;DHT22;1071;52.544;13.374;2022-12-10T16:15:50;3.20;99.90
2130;DHT22;1071;52.544;13.374;2022-12-10T16:18:18;3.20;99.90
2130;DHT22;1071;52.544;13.374;2022-12-10T16:20:45;3.20;99.90
2130;DHT22;1071;52.544;13.374;2022-12-10T16:23:16;3.20;99.90
2130;DHT22;1071;52.544;13.374;2022-12-10T16:25:44;3.20;99.90
2130;DHT22;1071;52.544;13.374;2022-12-10T16:28:14;3.20;99.90
2130;DHT22;1071;52.544;13.374;2022-12-10T16:30:43;3.20;99.90
2130;DHT22;1071;52.544;13.374;2022-12-10T16:33:12;3.10;99.90
2130;DHT22;1071;52.544;13.374;2022-12-10T16:35:40;3.10;99.90
2130;DHT22;1071;52.544;13.374;2022-12-10T16:38:12;3.10;99.90
2130;DHT22;1071;52.544;13.374;2022-12-10T16:40:46;3.10;99.90
2130;DHT22;1071;52.544;13.374;2022-12-10T16:43:16;3.10;99.90
2130;DHT22;1071;52.544;13.374;2022-12-10T16:45:44;3.20;99.90